Time;durP1;ratioP1;P1;durP2;ratioP2;P2;SDS_P1;SDS_P2;PMS_P1;PMS_P2;Temp;Humidity;BMP_temperature;BMP_pressure;BME280_temperature;BME280_humidity;BME280_pressure;Samples;Min_cycle;Max_cycle;Signal;HPM_P1;HPM_P2
2022/09/18 00:01:14;;;;;;;;;;;10.00;99.90;;;;;;4952351;28;19939;-74
2022/09/18 00:03:40;;;;;;;;;;;10.00;99.90;;;;;;4952760;28;19914;-74
2022/09/18 00:06:10;;;;;;;;;;;10.00;99.90;;;;;;4949499;28;19914;-73
2022/09/18 00:08:37;;;;;;;;;;;10.00;99.90;;;;;;4965651;28;19974;-72
2022/09/18 00:11:06;;;;;;;;;;;10.00;99.90;;;;;;4955775;28;20394;-73
2022/09/18 00:13:33;;;;;;;;;;;10.10;99.90;;;;;;4949369;28;20002;-73
2022/09/18 00:15:58;;;;;;;;;;;10.10;99.90;;;;;;4968291;28;19919;-72
2022/09/18 00:18:24;;;;;;;;;;;10.10;99.90;;;;;;4953458;28;20292;-73
2022/09/18 00:20:49;;;;;;;;;;;10.10;99.90;;;;;;4950815;28;19973;-74
2022/09/18 00:23:15;;;;;;;;;;;10.00;99.90;;;;;;4947098;28;19922;-75
2022/09/18 00:25:40;;;;;;;;;;;10.00;99.90;;;;;;4950413;28;19981;-74
2022/09/18 00:28:06;;;;;;;;;;;10.00;99.90;;;;;;4950466;28;19915;-74
2022/09/18 00:30:31;;;;;;;;;;;10.00;99.90;;;;;;4951313;28;19914;-74
2022/09/18 00:32:57;;;;;;;;;;;10.00;99.90;;;;;;4951724;28;19961;-74
2022/09/18 00:35:22;;;;;;;;;;;10.00;99.90;;;;;;4964823;28;20013;-74
2022/09/18 00:37:48;;;;;;;;;;;10.00;99.90;;;;;;4949682;28;19922;-74
2022/09/18 00:40:15;;;;;;;;;;;10.00;99.90;;;;;;4951897;28;19915;-74
2022/09/18 00:42:41;;;;;;;;;;;10.00;99.90;;;;;;4946018;28;19919;-74
2022/09/18 00:45:07;;;;;;;;;;;10.00;99.90;;;;;;4952058;28;20563;-74
2022/09/18 00:47:45;;;;;;;;;;;9.90;99.90;;;;;;4951609;28;19922;-74
2022/09/18 00:50:17;;;;;;;;;;;9.90;99.90;;;;;;4951210;28;19933;-74
2022/09/18 00:52:45;;;;;;;;;;;9.90;99.90;;;;;;4949814;28;19943;-74
2022/09/18 00:55:11;;;;;;;;;;;9.90;99.90;;;;;;4966418;28;19923;-74
2022/09/18 00:57:40;;;;;;;;;;;10.00;99.90;;;;;;4950084;28;19923;-74
2022/09/18 01:00:13;;;;;;;;;;;10.00;99.90;;;;;;4951555;28;20005;-74
2022/09/18 01:02:39;;;;;;;;;;;10.00;99.90;;;;;;4950957;28;19957;-74
2022/09/18 01:05:06;;;;;;;;;;;10.00;99.90;;;;;;4949492;28;21730;-74
2022/09/18 01:07:42;;;;;;;;;;;10.00;99.90;;;;;;4951920;28;19998;-74
2022/09/18 01:10:17;;;;;;;;;;;10.00;99.90;;;;;;4949397;28;20745;-73
2022/09/18 01:13:01;;;;;;;;;;;10.10;99.90;;;;;;4949805;28;19915;-74
2022/09/18 01:15:29;;;;;;;;;;;10.00;99.90;;;;;;4950670;28;19937;-74
2022/09/18 01:18:01;;;;;;;;;;;10.00;99.90;;;;;;4948023;28;19949;-74
2022/09/18 01:20:46;;;;;;;;;;;10.00;99.90;;;;;;4949133;28;19923;-74
2022/09/18 01:23:14;;;;;;;;;;;10.00;99.90;;;;;;4949561;28;19966;-74
2022/09/18 01:25:48;;;;;;;;;;;10.00;99.90;;;;;;4947703;28;20372;-74
2022/09/18 01:28:14;;;;;;;;;;;10.00;99.90;;;;;;4950229;28;20531;-74
2022/09/18 01:30:41;;;;;;;;;;;10.10;99.90;;;;;;4950831;28;19921;-74
2022/09/18 01:33:09;;;;;;;;;;;10.10;99.90;;;;;;4948362;28;19915;-74
2022/09/18 01:35:38;;;;;;;;;;;10.10;99.90;;;;;;4951468;28;19918;-74
2022/09/18 01:38:23;;;;;;;;;;;10.20;99.90;;;;;;4962981;28;19925;-74
2022/09/18 01:40:48;;;;;;;;;;;10.20;99.90;;;;;;4948635;28;19937;-74
2022/09/18 01:43:16;;;;;;;;;;;10.20;99.90;;;;;;4949607;28;20371;-74
2022/09/18 01:45:44;;;;;;;;;;;10.20;99.90;;;;;;4947757;28;19915;-74
2022/09/18 01:48:11;;;;;;;;;;;10.20;99.90;;;;;;4948485;28;19923;-74
2022/09/18 01:50:41;;;;;;;;;;;10.20;99.90;;;;;;4949960;28;19918;-73
2022/09/18 01:53:10;;;;;;;;;;;10.20;99.90;;;;;;4946984;28;20435;-73
2022/09/18 01:55:37;;;;;;;;;;;10.20;99.90;;;;;;4944084;28;19976;-74
2022/09/18 01:58:11;;;;;;;;;;;10.20;99.90;;;;;;4947917;28;19942;-74
2022/09/18 02:00:38;;;;;;;;;;;10.20;99.90;;;;;;4946496;28;19918;-74
2022/09/18 02:03:06;;;;;;;;;;;10.20;99.90;;;;;;4947795;28;19914;-74
2022/09/18 02:05:57;;;;;;;;;;;10.20;99.90;;;;;;4949094;28;19915;-74
2022/09/18 02:08:30;;;;;;;;;;;10.30;99.90;;;;;;4946893;28;19918;-74
2022/09/18 02:11:05;;;;;;;;;;;10.30;99.90;;;;;;4947402;28;19919;-74
2022/09/18 02:13:33;;;;;;;;;;;10.20;99.90;;;;;;4944890;28;19922;-74
2022/09/18 02:16:01;;;;;;;;;;;10.20;99.90;;;;;;4943762;28;20423;-73
2022/09/18 02:18:30;;;;;;;;;;;10.20;99.90;;;;;;4947822;28;19969;-74
2022/09/18 02:20:56;;;;;;;;;;;10.20;99.90;;;;;;4944358;28;19919;-74
2022/09/18 02:23:22;;;;;;;;;;;10.20;99.90;;;;;;4943419;28;19922;-74
2022/09/18 02:25:52;;;;;;;;;;;10.20;99.90;;;;;;4944864;28;19919;-74
2022/09/18 02:28:20;;;;;;;;;;;10.20;99.90;;;;;;4943229;28;20001;-73
2022/09/18 02:30:46;;;;;;;;;;;10.20;99.90;;;;;;4944244;28;19923;-74
2022/09/18 02:33:41;;;;;;;;;;;10.20;99.90;;;;;;4959251;28;19921;-74
2022/09/18 02:36:23;;;;;;;;;;;10.20;99.90;;;;;;4939930;28;20025;-74
2022/09/18 02:39:04;;;;;;;;;;;10.20;99.90;;;;;;4948278;29;19920;-75
2022/09/18 02:41:53;;;;;;;;;;;10.20;99.90;;;;;;4948413;28;19919;-74
2022/09/18 02:44:24;;;;;;;;;;;10.20;99.90;;;;;;4938739;28;20651;-75
2022/09/18 02:46:49;;;;;;;;;;;10.10;99.90;;;;;;4947661;28;20057;-74
2022/09/18 02:49:15;;;;;;;;;;;10.10;99.90;;;;;;4947437;28;20030;-74
2022/09/18 02:51:47;;;;;;;;;;;10.10;99.90;;;;;;4948947;28;19918;-74
2022/09/18 02:54:17;;;;;;;;;;;10.10;99.90;;;;;;4946609;28;21776;-74
2022/09/18 02:56:51;;;;;;;;;;;10.10;99.90;;;;;;4958089;28;20513;-74
2022/09/18 02:59:23;;;;;;;;;;;10.10;99.90;;;;;;4949500;28;20287;-73
2022/09/18 03:01:49;;;;;;;;;;;10.10;99.90;;;;;;4945303;28;19921;-73
2022/09/18 03:04:20;;;;;;;;;;;10.20;99.90;;;;;;4947794;28;20049;-74
2022/09/18 03:06:46;;;;;;;;;;;10.20;99.90;;;;;;4950265;28;19915;-74
2022/09/18 03:09:12;;;;;;;;;;;10.10;99.90;;;;;;4943496;28;19915;-74
2022/09/18 03:11:37;;;;;;;;;;;10.10;99.90;;;;;;4952834;28;19922;-73
2022/09/18 03:14:03;;;;;;;;;;;10.10;99.90;;;;;;4949119;28;19929;-75
2022/09/18 03:16:28;;;;;;;;;;;10.10;99.90;;;;;;4950071;28;19974;-73
2022/09/18 03:18:54;;;;;;;;;;;10.10;99.90;;;;;;4948498;28;19978;-74
2022/09/18 03:21:19;;;;;;;;;;;10.10;99.90;;;;;;4942115;28;19921;-73
2022/09/18 03:23:45;;;;;;;;;;;10.10;99.90;;;;;;4953105;28;19941;-74
2022/09/18 03:26:10;;;;;;;;;;;10.10;99.90;;;;;;4954232;28;19915;-74
2022/09/18 03:28:36;;;;;;;;;;;10.10;99.90;;;;;;4957339;28;19915;-74
2022/09/18 03:31:02;;;;;;;;;;;10.20;99.90;;;;;;4954690;28;19911;-75
2022/09/18 03:33:27;;;;;;;;;;;10.10;99.90;;;;;;4955034;28;19914;-74
2022/09/18 03:35:53;;;;;;;;;;;10.10;99.90;;;;;;4954200;28;19965;-74
2022/09/18 03:38:18;;;;;;;;;;;10.10;99.90;;;;;;4954785;28;19924;-74
2022/09/18 03:40:44;;;;;;;;;;;10.10;99.90;;;;;;4953735;28;19919;-74
2022/09/18 03:43:10;;;;;;;;;;;10.10;99.90;;;;;;4951641;28;19918;-74
2022/09/18 03:45:35;;;;;;;;;;;10.20;99.90;;;;;;4964797;28;19969;-74
2022/09/18 03:48:01;;;;;;;;;;;10.20;99.90;;;;;;4949353;28;20287;-73
2022/09/18 03:50:27;;;;;;;;;;;10.20;99.90;;;;;;4948708;28;19978;-73
2022/09/18 03:52:52;;;;;;;;;;;10.10;99.90;;;;;;4952864;28;20309;-73
2022/09/18 03:55:18;;;;;;;;;;;10.20;99.90;;;;;;4951818;28;19996;-73
2022/09/18 03:57:47;;;;;;;;;;;10.10;99.90;;;;;;4946812;28;19922;-74
2022/09/18 04:00:13;;;;;;;;;;;10.10;99.90;;;;;;4948029;28;19919;-73
2022/09/18 04:02:39;;;;;;;;;;;10.10;99.90;;;;;;4944861;28;19944;-73
2022/09/18 04:05:04;;;;;;;;;;;10.10;99.90;;;;;;4949344;28;19919;-73
2022/09/18 04:07:30;;;;;;;;;;;10.20;99.90;;;;;;4954153;28;20405;-74
2022/09/18 04:09:55;;;;;;;;;;;10.10;99.90;;;;;;4950432;28;20265;-73
2022/09/18 04:12:21;;;;;;;;;;;10.10;99.90;;;;;;4956247;28;19914;-73
2022/09/18 04:14:46;;;;;;;;;;;10.10;99.90;;;;;;4953784;28;19926;-73
2022/09/18 04:17:12;;;;;;;;;;;10.10;99.90;;;;;;4952412;28;19914;-74
2022/09/18 04:19:37;;;;;;;;;;;10.10;99.90;;;;;;4953134;28;19967;-74
2022/09/18 04:22:03;;;;;;;;;;;10.10;99.90;;;;;;4950637;28;19993;-74
2022/09/18 04:24:28;;;;;;;;;;;10.10;99.90;;;;;;4950242;28;19915;-74
2022/09/18 04:26:54;;;;;;;;;;;10.10;99.90;;;;;;4950687;28;19914;-73
2022/09/18 04:29:20;;;;;;;;;;;10.10;99.90;;;;;;4951400;28;19954;-74
2022/09/18 04:31:45;;;;;;;;;;;10.10;99.90;;;;;;4949977;28;19918;-73
2022/09/18 04:34:11;;;;;;;;;;;10.10;99.90;;;;;;4949609;29;20106;-73
2022/09/18 04:36:36;;;;;;;;;;;10.10;99.90;;;;;;4950220;28;19915;-73
2022/09/18 04:39:02;;;;;;;;;;;10.20;99.90;;;;;;4948454;28;19914;-73
2022/09/18 04:41:27;;;;;;;;;;;10.10;99.90;;;;;;4950721;28;19937;-73
2022/09/18 04:43:53;;;;;;;;;;;10.10;99.90;;;;;;4964469;28;20296;-73
2022/09/18 04:46:18;;;;;;;;;;;10.10;99.90;;;;;;4946895;28;19922;-73
2022/09/18 04:48:46;;;;;;;;;;;10.10;99.90;;;;;;4949470;28;20411;-73
2022/09/18 04:51:11;;;;;;;;;;;10.10;99.90;;;;;;4944575;28;20380;-74
2022/09/18 04:53:38;;;;;;;;;;;10.00;99.90;;;;;;4952389;28;19930;-73
2022/09/18 04:56:04;;;;;;;;;;;10.00;99.90;;;;;;4965045;28;19970;-73
2022/09/18 04:58:29;;;;;;;;;;;10.00;99.90;;;;;;4953754;28;20388;-74
2022/09/18 05:00:55;;;;;;;;;;;10.00;99.90;;;;;;4951395;28;19918;-74
2022/09/18 05:03:21;;;;;;;;;;;10.00;99.90;;;;;;4951826;28;20379;-73
2022/09/18 05:05:47;;;;;;;;;;;10.00;99.90;;;;;;4948992;28;19997;-73
2022/09/18 05:08:13;;;;;;;;;;;10.00;99.90;;;;;;4949696;28;19914;-73
2022/09/18 05:10:38;;;;;;;;;;;10.00;99.90;;;;;;4952641;28;19977;-73
2022/09/18 05:13:04;;;;;;;;;;;10.00;99.90;;;;;;4965334;28;20024;-73
2022/09/18 05:15:30;;;;;;;;;;;10.00;99.90;;;;;;4949164;28;19927;-73
2022/09/18 05:17:59;;;;;;;;;;;10.00;99.90;;;;;;4952696;28;20342;-75
2022/09/18 05:20:25;;;;;;;;;;;10.00;99.90;;;;;;4950250;28;20511;-74
2022/09/18 05:22:50;;;;;;;;;;;10.00;99.90;;;;;;4948953;28;19969;-74
2022/09/18 05:25:16;;;;;;;;;;;10.00;99.90;;;;;;4953018;28;19922;-74
2022/09/18 05:27:42;;;;;;;;;;;10.00;99.90;;;;;;4952475;28;19915;-73
2022/09/18 05:30:07;;;;;;;;;;;10.00;99.90;;;;;;4949196;29;20013;-73
2022/09/18 05:32:33;;;;;;;;;;;10.00;99.90;;;;;;4968191;28;19929;-74
2022/09/18 05:34:58;;;;;;;;;;;9.90;99.90;;;;;;4950747;28;19919;-74
2022/09/18 05:37:24;;;;;;;;;;;9.90;99.90;;;;;;4963232;28;19915;-74
2022/09/18 05:39:49;;;;;;;;;;;9.90;99.90;;;;;;4949086;28;19969;-74
2022/09/18 05:42:15;;;;;;;;;;;10.00;99.90;;;;;;4946083;28;19953;-73
2022/09/18 05:44:40;;;;;;;;;;;9.90;99.90;;;;;;4963110;28;19988;-75
2022/09/18 05:47:06;;;;;;;;;;;10.00;99.90;;;;;;4950615;28;19914;-75
2022/09/18 05:49:31;;;;;;;;;;;10.00;99.90;;;;;;4949002;29;20367;-74
2022/09/18 05:51:57;;;;;;;;;;;10.00;99.90;;;;;;4948901;28;20372;-75
2022/09/18 05:54:23;;;;;;;;;;;10.00;99.90;;;;;;4948785;28;19925;-76
2022/09/18 05:56:48;;;;;;;;;;;10.00;99.90;;;;;;4948789;28;19914;-70
2022/09/18 05:59:14;;;;;;;;;;;10.10;99.90;;;;;;4949321;28;19915;-68
2022/09/18 06:01:39;;;;;;;;;;;10.20;99.90;;;;;;4968011;28;19914;-69
2022/09/18 06:04:05;;;;;;;;;;;10.30;99.90;;;;;;4948953;28;19918;-70
2022/09/18 06:06:30;;;;;;;;;;;10.40;99.90;;;;;;4948000;28;20690;-69
2022/09/18 06:08:56;;;;;;;;;;;10.50;99.90;;;;;;4948963;28;19969;-70
2022/09/18 06:11:22;;;;;;;;;;;10.60;99.90;;;;;;4947582;28;19922;-70
2022/09/18 06:13:50;;;;;;;;;;;10.70;99.90;;;;;;4945706;28;19915;-70
2022/09/18 06:16:16;;;;;;;;;;;10.80;99.90;;;;;;4959754;28;19937;-69
2022/09/18 06:18:41;;;;;;;;;;;10.90;99.90;;;;;;4944989;28;19949;-70
2022/09/18 06:21:07;;;;;;;;;;;10.90;99.90;;;;;;4944797;28;19915;-68
2022/09/18 06:23:33;;;;;;;;;;;11.00;99.90;;;;;;4944954;28;19922;-75
2022/09/18 06:25:59;;;;;;;;;;;11.00;99.90;;;;;;4943790;28;19969;-74
2022/09/18 06:28:25;;;;;;;;;;;10.90;99.90;;;;;;4945871;28;19914;-73
2022/09/18 06:30:51;;;;;;;;;;;10.90;99.90;;;;;;4944985;28;19921;-73
2022/09/18 06:33:16;;;;;;;;;;;10.90;99.90;;;;;;4941662;28;19915;-73
2022/09/18 06:35:42;;;;;;;;;;;10.80;99.90;;;;;;4949221;28;20018;-72
2022/09/18 06:38:08;;;;;;;;;;;10.80;99.90;;;;;;4950355;28;20368;-73
2022/09/18 06:40:34;;;;;;;;;;;10.70;99.90;;;;;;4965622;28;19915;-74
2022/09/18 06:45:49;;;;;;;;;;;10.70;99.90;;;;;;4961288;28;20387;-82
2022/09/18 06:48:15;;;;;;;;;;;10.70;99.90;;;;;;4985672;28;19920;-81
2022/09/18 06:50:40;;;;;;;;;;;10.70;99.90;;;;;;4978865;28;19918;-82
2022/09/18 06:53:06;;;;;;;;;;;10.70;99.90;;;;;;4982193;28;20029;-81
2022/09/18 06:55:31;;;;;;;;;;;10.70;99.90;;;;;;4981912;28;20373;-81
2022/09/18 06:57:59;;;;;;;;;;;10.70;99.90;;;;;;4989696;23;20303;-74
2022/09/18 07:00:25;;;;;;;;;;;10.80;99.90;;;;;;4989802;28;19925;-73
2022/09/18 07:02:57;;;;;;;;;;;10.70;99.90;;;;;;4989891;28;20367;-74
2022/09/18 07:05:30;;;;;;;;;;;10.70;99.90;;;;;;4988004;28;19976;-74
2022/09/18 07:07:56;;;;;;;;;;;10.70;99.90;;;;;;4991752;28;19917;-73
2022/09/18 07:10:22;;;;;;;;;;;10.70;99.90;;;;;;4995478;28;20366;-73
2022/09/18 07:12:47;;;;;;;;;;;10.80;99.90;;;;;;4993810;28;20294;-73
2022/09/18 07:15:17;;;;;;;;;;;10.80;99.90;;;;;;4988199;28;20297;-73
2022/09/18 07:17:43;;;;;;;;;;;10.90;99.90;;;;;;4990397;28;20045;-73
2022/09/18 07:20:09;;;;;;;;;;;11.00;99.90;;;;;;4993384;28;19918;-73
2022/09/18 07:22:35;;;;;;;;;;;11.00;99.90;;;;;;4991242;28;19914;-73
2022/09/18 07:25:01;;;;;;;;;;;11.10;99.90;;;;;;4992605;28;19914;-73
2022/09/18 07:27:27;;;;;;;;;;;11.10;99.90;;;;;;4993945;28;19913;-73
2022/09/18 07:29:52;;;;;;;;;;;11.20;99.90;;;;;;4991231;28;19914;-73
2022/09/18 07:32:21;;;;;;;;;;;11.20;99.90;;;;;;4994882;28;19921;-74
2022/09/18 07:34:47;;;;;;;;;;;11.20;99.90;;;;;;4994333;28;19929;-73
2022/09/18 07:37:12;;;;;;;;;;;11.30;99.90;;;;;;4995694;28;19918;-75
2022/09/18 07:39:38;;;;;;;;;;;11.30;99.90;;;;;;4998292;28;19920;-75
2022/09/18 07:42:04;;;;;;;;;;;11.30;99.90;;;;;;4996627;28;19930;-75
2022/09/18 07:44:30;;;;;;;;;;;11.40;99.90;;;;;;4994807;28;19914;-75
2022/09/18 07:46:56;;;;;;;;;;;11.40;99.90;;;;;;5015995;28;19932;-75
2022/09/18 07:49:21;;;;;;;;;;;11.50;99.90;;;;;;5014753;28;19935;-75
2022/09/18 07:51:47;;;;;;;;;;;11.50;99.90;;;;;;5013903;28;19939;-74
2022/09/18 07:54:12;;;;;;;;;;;11.60;99.90;;;;;;5012640;28;19923;-74
2022/09/18 07:56:38;;;;;;;;;;;11.70;99.90;;;;;;5014128;28;20004;-74
2022/09/18 07:59:03;;;;;;;;;;;11.70;99.90;;;;;;5010982;28;19959;-74
2022/09/18 08:01:29;;;;;;;;;;;11.70;99.90;;;;;;5011659;28;19985;-75
2022/09/18 08:03:54;;;;;;;;;;;11.60;99.90;;;;;;5008940;28;19913;-75
2022/09/18 08:06:20;;;;;;;;;;;11.70;99.90;;;;;;5011113;28;19910;-75
2022/09/18 08:08:45;;;;;;;;;;;11.60;99.90;;;;;;5012290;28;19922;-74
2022/09/18 08:11:11;;;;;;;;;;;11.60;99.90;;;;;;5013407;28;21120;-74
2022/09/18 08:13:37;;;;;;;;;;;11.60;99.90;;;;;;5013284;28;19920;-74
2022/09/18 08:16:03;;;;;;;;;;;11.50;99.90;;;;;;5017105;28;19917;-75
2022/09/18 08:18:28;;;;;;;;;;;11.50;99.90;;;;;;5014603;28;19924;-74
2022/09/18 08:20:54;;;;;;;;;;;11.50;99.90;;;;;;5016513;28;19928;-74
2022/09/18 08:23:20;;;;;;;;;;;11.50;99.90;;;;;;5015870;28;20009;-75
2022/09/18 08:25:46;;;;;;;;;;;11.50;99.90;;;;;;5016128;28;19964;-74
2022/09/18 08:28:11;;;;;;;;;;;11.50;99.90;;;;;;5017334;28;19924;-74
2022/09/18 08:30:37;;;;;;;;;;;11.50;99.90;;;;;;5015372;28;19921;-74
2022/09/18 08:33:04;;;;;;;;;;;11.50;99.90;;;;;;5015204;28;19932;-74
2022/09/18 08:35:30;;;;;;;;;;;11.50;99.90;;;;;;4991076;28;19925;-74
2022/09/18 08:37:56;;;;;;;;;;;11.50;99.90;;;;;;5011054;28;20335;-74
2022/09/18 08:40:30;;;;;;;;;;;11.50;99.90;;;;;;5011233;28;19997;-74
2022/09/18 08:43:15;;;;;;;;;;;11.50;99.90;;;;;;5012955;28;19917;-75
2022/09/18 08:45:50;;;;;;;;;;;11.60;99.90;;;;;;5016920;28;19913;-75
2022/09/18 08:48:17;;;;;;;;;;;11.70;99.90;;;;;;4995736;28;20258;-75
2022/09/18 08:50:46;;;;;;;;;;;11.80;99.90;;;;;;5004584;23;19984;-76
2022/09/18 08:53:11;;;;;;;;;;;11.90;99.90;;;;;;4988380;28;19957;-75
2022/09/18 08:55:38;;;;;;;;;;;12.00;99.90;;;;;;4984807;28;20392;-76
2022/09/18 08:58:11;;;;;;;;;;;12.10;99.90;;;;;;4990234;28;19975;-75
2022/09/18 09:00:40;;;;;;;;;;;12.20;99.90;;;;;;4974899;28;19914;-76
2022/09/18 09:03:25;;;;;;;;;;;12.30;99.90;;;;;;4973277;28;19921;-76
2022/09/18 09:05:55;;;;;;;;;;;12.40;99.90;;;;;;4957351;28;20322;-75
2022/09/18 09:08:39;;;;;;;;;;;12.50;99.90;;;;;;4971051;28;19984;-75
2022/09/18 09:11:08;;;;;;;;;;;12.60;99.90;;;;;;4974743;28;19922;-75
2022/09/18 09:13:46;;;;;;;;;;;12.60;99.90;;;;;;4956053;28;20037;-75
2022/09/18 09:16:17;;;;;;;;;;;12.60;99.90;;;;;;4970935;28;19918;-75
2022/09/18 09:18:42;;;;;;;;;;;12.60;99.90;;;;;;4975770;28;19917;-75
2022/09/18 09:21:16;;;;;;;;;;;12.60;99.90;;;;;;4975798;28;20011;-75
2022/09/18 09:24:03;;;;;;;;;;;12.60;99.90;;;;;;4973277;28;19993;-75
2022/09/18 09:26:31;;;;;;;;;;;12.60;99.90;;;;;;4971872;28;20424;-76
2022/09/18 09:29:03;;;;;;;;;;;12.60;99.90;;;;;;4976156;28;20374;-76
2022/09/18 09:31:34;;;;;;;;;;;12.60;99.90;;;;;;4969125;28;19921;-75
2022/09/18 09:34:02;;;;;;;;;;;12.50;99.90;;;;;;4976194;28;20015;-75
2022/09/18 09:36:29;;;;;;;;;;;12.50;99.90;;;;;;4971009;28;20398;-75
2022/09/18 09:39:14;;;;;;;;;;;12.50;99.90;;;;;;4971514;28;19910;-75
2022/09/18 09:41:41;;;;;;;;;;;12.50;99.90;;;;;;4970362;28;19968;-76
2022/09/18 09:44:26;;;;;;;;;;;12.50;99.90;;;;;;4971589;28;19946;-75
2022/09/18 09:47:03;;;;;;;;;;;12.50;99.90;;;;;;4973405;28;19961;-76
2022/09/18 09:49:32;;;;;;;;;;;12.50;99.90;;;;;;4967441;28;19972;-76
2022/09/18 09:52:08;;;;;;;;;;;12.50;99.90;;;;;;4949818;28;19922;-75
2022/09/18 09:54:33;;;;;;;;;;;12.60;99.90;;;;;;4971321;28;19920;-76
2022/09/18 09:57:06;;;;;;;;;;;12.60;99.90;;;;;;4975942;28;20301;-75
2022/09/18 09:59:35;;;;;;;;;;;12.80;99.90;;;;;;4975061;28;19921;-75
2022/09/18 10:02:03;;;;;;;;;;;12.90;99.90;;;;;;4978754;28;19928;-75
2022/09/18 10:04:30;;;;;;;;;;;13.00;99.90;;;;;;4974860;28;19922;-75
2022/09/18 10:06:59;;;;;;;;;;;13.20;99.90;;;;;;4971733;28;19957;-76
2022/09/18 10:09:45;;;;;;;;;;;13.30;99.90;;;;;;4969818;28;19918;-76
2022/09/18 10:12:11;;;;;;;;;;;13.50;99.90;;;;;;4949532;28;19922;-76
2022/09/18 10:14:38;;;;;;;;;;;13.50;99.90;;;;;;4972695;28;20421;-76
2022/09/18 10:17:05;;;;;;;;;;;13.60;99.90;;;;;;4971043;28;20419;-76
2022/09/18 10:19:36;;;;;;;;;;;13.70;99.90;;;;;;4979978;28;19922;-76
2022/09/18 10:22:04;;;;;;;;;;;13.80;99.90;;;;;;4959479;28;20017;-75
2022/09/18 10:24:37;;;;;;;;;;;13.80;99.90;;;;;;4970865;28;20005;-76
2022/09/18 10:27:10;;;;;;;;;;;13.80;99.90;;;;;;4974844;28;19922;-76
2022/09/18 10:29:36;;;;;;;;;;;13.90;99.90;;;;;;4954232;28;19910;-76
2022/09/18 10:32:02;;;;;;;;;;;14.00;99.90;;;;;;4979242;28;20382;-76
2022/09/18 10:34:37;;;;;;;;;;;14.10;99.90;;;;;;4978319;28;20440;-76
2022/09/18 10:37:03;;;;;;;;;;;14.00;99.90;;;;;;4973241;28;19925;-76
2022/09/18 10:39:30;;;;;;;;;;;14.00;99.90;;;;;;4974531;28;19910;-76
2022/09/18 10:41:59;;;;;;;;;;;14.10;99.90;;;;;;4969265;28;19921;-76
2022/09/18 10:44:31;;;;;;;;;;;14.00;99.90;;;;;;4971480;28;19915;-77
2022/09/18 10:46:59;;;;;;;;;;;14.10;99.90;;;;;;4954964;28;20020;-76
2022/09/18 10:49:28;;;;;;;;;;;14.20;99.90;;;;;;4968074;28;19918;-76
2022/09/18 10:52:11;;;;;;;;;;;14.20;99.90;;;;;;4979719;28;19913;-76
2022/09/18 10:54:37;;;;;;;;;;;14.10;99.90;;;;;;4956739;28;19919;-76
2022/09/18 10:57:23;;;;;;;;;;;14.20;99.90;;;;;;4972334;28;19914;-77
2022/09/18 10:59:48;;;;;;;;;;;14.10;99.90;;;;;;4955942;28;20000;-77
2022/09/18 11:02:17;;;;;;;;;;;14.10;99.90;;;;;;4956348;28;20012;-77
2022/09/18 11:04:45;;;;;;;;;;;14.10;99.90;;;;;;4959097;28;20363;-77
2022/09/18 11:07:11;;;;;;;;;;;14.20;99.90;;;;;;4974345;28;20326;-77
2022/09/18 11:09:37;;;;;;;;;;;14.30;99.90;;;;;;4980811;28;19964;-77
2022/09/18 11:12:03;;;;;;;;;;;14.30;99.90;;;;;;4958130;28;19914;-77
2022/09/18 11:14:30;;;;;;;;;;;14.30;99.90;;;;;;4971081;28;19922;-77
2022/09/18 11:16:58;;;;;;;;;;;14.40;99.90;;;;;;4975505;28;19915;-77
2022/09/18 11:19:32;;;;;;;;;;;14.40;99.90;;;;;;4974309;28;20287;-77
2022/09/18 11:22:00;;;;;;;;;;;14.40;99.90;;;;;;4979568;28;19914;-77
2022/09/18 11:24:31;;;;;;;;;;;14.40;99.90;;;;;;4974093;28;20282;-76
2022/09/18 11:26:58;;;;;;;;;;;14.40;99.90;;;;;;4968768;28;19914;-76
2022/09/18 11:29:28;;;;;;;;;;;14.40;99.90;;;;;;4952947;28;19937;-75
2022/09/18 11:32:02;;;;;;;;;;;14.50;99.90;;;;;;4967748;28;19915;-76
2022/09/18 11:34:38;;;;;;;;;;;14.50;99.90;;;;;;4965456;28;19921;-76
2022/09/18 11:37:09;;;;;;;;;;;14.60;99.90;;;;;;4969483;28;20126;-77
2022/09/18 11:39:40;;;;;;;;;;;14.60;99.90;;;;;;4973799;28;19914;-77
2022/09/18 11:42:07;;;;;;;;;;;14.70;99.90;;;;;;4970233;28;19921;-77
2022/09/18 11:44:33;;;;;;;;;;;14.70;99.90;;;;;;4976495;28;20378;-77
2022/09/18 11:47:07;;;;;;;;;;;14.70;99.90;;;;;;4977363;28;19928;-76
2022/09/18 11:49:54;;;;;;;;;;;14.70;99.90;;;;;;4967451;28;19926;-76
2022/09/18 11:52:23;;;;;;;;;;;14.70;99.90;;;;;;4954322;28;19921;-76
2022/09/18 11:54:54;;;;;;;;;;;14.70;99.90;;;;;;4978175;28;19918;-76
2022/09/18 11:57:33;;;;;;;;;;;14.60;99.90;;;;;;4982208;28;19910;-76
2022/09/18 12:00:12;;;;;;;;;;;14.60;99.90;;;;;;4975881;28;19921;-76
2022/09/18 12:02:40;;;;;;;;;;;14.60;99.90;;;;;;4974978;28;19922;-76
2022/09/18 12:05:22;;;;;;;;;;;14.50;99.90;;;;;;4977061;28;19914;-76
2022/09/18 12:07:55;;;;;;;;;;;14.50;99.90;;;;;;4909214;28;19922;-76
2022/09/18 12:10:24;;;;;;;;;;;14.50;99.90;;;;;;4975407;28;19918;-76
2022/09/18 12:12:49;;;;;;;;;;;14.50;99.90;;;;;;4978822;28;19921;-76
2022/09/18 12:15:17;;;;;;;;;;;14.40;99.90;;;;;;4972657;28;19918;-76
2022/09/18 12:17:49;;;;;;;;;;;14.50;99.90;;;;;;4975137;28;20565;-76
2022/09/18 12:20:21;;;;;;;;;;;14.50;99.90;;;;;;4975356;28;20431;-76
2022/09/18 12:23:00;;;;;;;;;;;14.60;99.90;;;;;;4952644;28;19969;-76
2022/09/18 12:25:41;;;;;;;;;;;14.60;99.90;;;;;;4973697;28;19917;-76
2022/09/18 12:28:13;;;;;;;;;;;14.70;99.90;;;;;;4974137;28;20005;-77
2022/09/18 12:30:47;;;;;;;;;;;14.70;99.90;;;;;;4973009;28;19914;-77
2022/09/18 12:33:16;;;;;;;;;;;14.80;99.90;;;;;;4972433;28;19921;-76
2022/09/18 12:35:44;;;;;;;;;;;14.80;99.90;;;;;;4974545;28;19926;-76
2022/09/18 12:38:12;;;;;;;;;;;14.80;99.90;;;;;;4972617;28;19977;-76
2022/09/18 12:40:55;;;;;;;;;;;14.80;99.90;;;;;;4976393;28;19918;-76
2022/09/18 12:43:34;;;;;;;;;;;14.80;99.90;;;;;;4966291;28;20021;-76
2022/09/18 12:46:09;;;;;;;;;;;14.80;99.90;;;;;;4966298;28;19918;-76
2022/09/18 12:48:48;;;;;;;;;;;14.80;99.90;;;;;;4965622;28;20520;-76
2022/09/18 12:51:32;;;;;;;;;;;14.80;99.90;;;;;;4957298;28;20012;-76
2022/09/18 12:54:04;;;;;;;;;;;14.70;99.90;;;;;;4969110;28;20376;-76
2022/09/18 12:56:44;;;;;;;;;;;14.70;99.90;;;;;;4968299;28;20323;-76
2022/09/18 12:59:28;;;;;;;;;;;14.70;99.90;;;;;;4973953;28;19921;-77
2022/09/18 13:01:54;;;;;;;;;;;14.70;99.90;;;;;;4956807;28;19918;-76
2022/09/18 13:04:32;;;;;;;;;;;14.60;99.90;;;;;;4973159;28;19980;-76
2022/09/18 13:07:04;;;;;;;;;;;14.70;99.90;;;;;;4954820;28;19914;-76
2022/09/18 13:09:34;;;;;;;;;;;14.60;99.90;;;;;;4971996;28;20439;-75
2022/09/18 13:12:19;;;;;;;;;;;14.60;99.90;;;;;;4955908;28;19980;-76
2022/09/18 13:14:49;;;;;;;;;;;14.60;99.90;;;;;;4955454;28;19925;-76
2022/09/18 13:17:35;;;;;;;;;;;14.50;99.90;;;;;;4953618;28;19921;-76
2022/09/18 13:20:10;;;;;;;;;;;14.60;99.90;;;;;;4969570;28;20001;-76
2022/09/18 13:22:36;;;;;;;;;;;14.60;99.90;;;;;;4975347;28;19918;-76
2022/09/18 13:25:03;;;;;;;;;;;14.60;99.90;;;;;;4974725;28;20371;-76
2022/09/18 13:27:30;;;;;;;;;;;14.70;99.90;;;;;;4971121;28;19918;-76
2022/09/18 13:29:57;;;;;;;;;;;14.80;99.90;;;;;;4969447;28;19968;-76
2022/09/18 13:32:29;;;;;;;;;;;14.70;99.90;;;;;;4970389;28;19914;-77
2022/09/18 13:34:56;;;;;;;;;;;14.70;99.90;;;;;;4969222;28;19941;-76
2022/09/18 13:37:22;;;;;;;;;;;14.80;99.90;;;;;;4951776;28;19925;-76
2022/09/18 13:39:53;;;;;;;;;;;14.80;99.90;;;;;;4945010;28;20005;-75
2022/09/18 13:42:34;;;;;;;;;;;14.80;99.90;;;;;;4970583;28;19914;-77
2022/09/18 13:45:06;;;;;;;;;;;14.80;99.90;;;;;;4970302;28;20334;-78
2022/09/18 13:47:51;;;;;;;;;;;14.90;99.90;;;;;;4970331;28;19921;-67
2022/09/18 13:50:17;;;;;;;;;;;14.90;99.90;;;;;;4968056;28;19933;-67
2022/09/18 13:52:53;;;;;;;;;;;15.10;99.90;;;;;;4969229;28;19914;-68
2022/09/18 13:55:19;;;;;;;;;;;15.20;99.90;;;;;;4970846;28;19918;-68
2022/09/18 13:57:44;;;;;;;;;;;15.20;99.90;;;;;;4969665;28;19931;-68
2022/09/18 14:00:19;;;;;;;;;;;15.30;99.90;;;;;;4971513;28;20438;-67
2022/09/18 14:03:04;;;;;;;;;;;15.40;99.90;;;;;;4968871;28;20006;-69
2022/09/18 14:05:37;;;;;;;;;;;15.40;99.90;;;;;;4967617;28;19918;-68
2022/09/18 14:08:18;;;;;;;;;;;15.40;99.90;;;;;;4951795;28;19977;-69
2022/09/18 14:10:50;;;;;;;;;;;15.40;99.90;;;;;;4967687;28;19914;-67
2022/09/18 14:13:21;;;;;;;;;;;15.40;99.50;;;;;;4967804;28;19949;-72
2022/09/18 14:15:49;;;;;;;;;;;15.40;99.40;;;;;;4968369;28;19925;-69
2022/09/18 14:18:20;;;;;;;;;;;15.40;99.10;;;;;;4965576;28;19914;-66
2022/09/18 14:20:50;;;;;;;;;;;15.40;98.80;;;;;;4961878;28;20009;-67
2022/09/18 14:23:34;;;;;;;;;;;15.40;98.80;;;;;;4967068;28;20000;-67
2022/09/18 14:26:00;;;;;;;;;;;15.40;99.10;;;;;;4967880;28;20013;-67
2022/09/18 14:28:27;;;;;;;;;;;15.40;99.40;;;;;;4970653;28;19949;-68
2022/09/18 14:31:26;;;;;;;;;;;15.40;99.60;;;;;;4968243;28;20008;-68